Time;durP1;ratioP1;P1;durP2;ratioP2;P2;SDS_P1;SDS_P2;PMS_P1;PMS_P2;Temp;Humidity;BMP_temperature;BMP_pressure;BME280_temperature;BME280_humidity;BME280_pressure;Samples;Min_cycle;Max_cycle;Signal;HPM_P1;HPM_P2
2022/10/07 00:02:47;;;;;;;6.57;2.13;;;;;;;;;;4874245;29;20041;-83
2022/10/07 00:05:16;;;;;;;3.92;1.80;;;;;;;;;;4874644;29;20037;-82
2022/10/07 00:07:43;;;;;;;6.97;2.00;;;;;;;;;;4873375;29;20055;-82
2022/10/07 00:10:42;;;;;;;5.40;1.90;;;;;;;;;;4873035;29;20501;-82
2022/10/07 00:13:10;;;;;;;8.60;2.00;;;;;;;;;;4884629;29;20131;-82
2022/10/07 00:15:43;;;;;;;5.55;1.90;;;;;;;;;;4871938;29;20060;-82
2022/10/07 00:18:11;;;;;;;8.43;2.38;;;;;;;;;;4873725;29;20413;-82
2022/10/07 00:20:40;;;;;;;5.10;2.60;;;;;;;;;;4869410;29;20139;-82
2022/10/07 00:23:08;;;;;;;9.32;2.03;;;;;;;;;;4871820;29;20033;-83
2022/10/07 00:25:36;;;;;;;6.65;1.95;;;;;;;;;;4873729;29;20618;-83
2022/10/07 00:28:04;;;;;;;8.30;2.03;;;;;;;;;;4888707;29;20037;-82
2022/10/07 00:30:32;;;;;;;10.48;3.15;;;;;;;;;;4872044;29;20041;-83
2022/10/07 00:33:08;;;;;;;5.72;2.03;;;;;;;;;;4874056;29;20045;-83
2022/10/07 00:35:41;;;;;;;3.65;1.63;;;;;;;;;;4883618;29;20517;-82
2022/10/07 00:38:09;;;;;;;4.53;2.00;;;;;;;;;;4884495;29;20124;-83
2022/10/07 00:40:40;;;;;;;6.18;1.92;;;;;;;;;;4854885;29;20454;-82
2022/10/07 00:43:28;;;;;;;10.95;2.15;;;;;;;;;;4874105;29;20045;-83
2022/10/07 00:46:28;;;;;;;8.40;1.60;;;;;;;;;;4873396;29;20501;-83
2022/10/07 00:48:59;;;;;;;7.82;1.52;;;;;;;;;;4883606;29;20033;-83
2022/10/07 00:51:30;;;;;;;6.97;2.15;;;;;;;;;;4872017;29;20068;-83
2022/10/07 00:54:05;;;;;;;7.95;1.90;;;;;;;;;;4887996;29;20056;-83
2022/10/07 00:56:33;;;;;;;10.13;2.10;;;;;;;;;;4871733;29;20037;-82
2022/10/07 00:59:07;;;;;;;7.75;1.75;;;;;;;;;;4872998;29;20041;-82
2022/10/07 01:01:35;;;;;;;6.32;1.88;;;;;;;;;;4874046;29;20041;-83
2022/10/07 01:04:12;;;;;;;6.95;2.05;;;;;;;;;;4874790;29;20053;-82
2022/10/07 01:07:05;;;;;;;7.32;2.55;;;;;;;;;;4871507;29;20040;-83
2022/10/07 01:09:34;;;;;;;9.35;2.25;;;;;;;;;;4856224;29;20133;-82
2022/10/07 01:12:10;;;;;;;5.85;1.90;;;;;;;;;;4873714;29;20517;-82
2022/10/07 01:15:00;;;;;;;5.40;1.90;;;;;;;;;;4886971;29;20093;-83
2022/10/07 01:17:57;;;;;;;7.25;2.03;;;;;;;;;;4873677;29;20048;-82
2022/10/07 01:20:39;;;;;;;7.65;1.85;;;;;;;;;;4873669;29;20041;-82
2022/10/07 01:23:16;;;;;;;6.30;1.90;;;;;;;;;;4887444;29;20128;-82
2022/10/07 01:25:57;;;;;;;9.35;2.50;;;;;;;;;;4888245;29;20059;-83
2022/10/07 01:28:32;;;;;;;7.53;2.20;;;;;;;;;;4874637;29;20048;-82
2022/10/07 01:31:09;;;;;;;10.15;2.53;;;;;;;;;;4865083;29;20072;-83
2022/10/07 01:34:03;;;;;;;8.25;2.22;;;;;;;;;;4872397;29;20052;-82
2022/10/07 01:36:35;;;;;;;8.40;1.90;;;;;;;;;;4872406;29;20041;-82
2022/10/07 01:39:10;;;;;;;6.68;2.08;;;;;;;;;;4866604;29;20064;-82
2022/10/07 01:41:43;;;;;;;5.65;1.95;;;;;;;;;;4887075;29;20117;-82
2022/10/07 01:44:12;;;;;;;7.32;2.47;;;;;;;;;;4878447;29;20323;-83
2022/10/07 01:46:42;;;;;;;7.10;2.13;;;;;;;;;;4871770;29;20143;-82
2022/10/07 01:49:09;;;;;;;9.13;2.47;;;;;;;;;;4866665;29;20041;-82
2022/10/07 01:52:25;;;;;;;7.90;2.83;;;;;;;;;;4866127;29;20040;-82
2022/10/07 01:55:27;;;;;;;5.63;2.30;;;;;;;;;;4867877;29;20041;-83
2022/10/07 01:58:22;;;;;;;9.52;2.72;;;;;;;;;;4883683;29;20149;-83
2022/10/07 02:01:02;;;;;;;5.88;1.90;;;;;;;;;;4831001;29;20065;-82
2022/10/07 02:03:37;;;;;;;7.60;2.20;;;;;;;;;;4832687;29;20085;-82
2022/10/07 02:06:12;;;;;;;6.57;2.42;;;;;;;;;;4818592;29;20046;-83
2022/10/07 02:08:47;;;;;;;9.50;2.65;;;;;;;;;;4817584;29;20049;-82
2022/10/07 02:11:20;;;;;;;10.77;2.58;;;;;;;;;;4833669;29;20126;-82
2022/10/07 02:14:02;;;;;;;7.30;2.67;;;;;;;;;;4818268;29;20049;-82
2022/10/07 02:16:38;;;;;;;9.95;2.70;;;;;;;;;;4802387;29;20681;-83
2022/10/07 02:19:36;;;;;;;4.68;2.40;;;;;;;;;;4833017;29;20054;-82
2022/10/07 02:22:28;;;;;;;5.20;2.42;;;;;;;;;;4832976;29;20387;-82
2022/10/07 02:24:58;;;;;;;8.20;2.63;;;;;;;;;;4831183;29;20097;-83
2022/10/07 02:27:36;;;;;;;9.15;2.38;;;;;;;;;;4831838;29;20128;-82
2022/10/07 02:30:10;;;;;;;5.25;2.60;;;;;;;;;;4817952;29;20137;-83
2022/10/07 02:32:45;;;;;;;10.13;2.60;;;;;;;;;;4832824;29;20543;-83
2022/10/07 02:35:49;;;;;;;8.27;2.75;;;;;;;;;;4832285;29;20631;-83
2022/10/07 02:38:18;;;;;;;9.90;2.45;;;;;;;;;;4862994;29;20099;-83
2022/10/07 02:44:36;;;;;;;6.20;2.38;;;;;;;;;;4869690;29;20052;-82
2022/10/07 02:47:15;;;;;;;4.50;2.70;;;;;;;;;;4877079;29;20499;-83
2022/10/07 02:49:47;;;;;;;8.60;2.22;;;;;;;;;;4871106;29;20044;-83
2022/10/07 02:52:18;;;;;;;7.38;2.70;;;;;;;;;;4872663;29;20043;-83
2022/10/07 02:54:58;;;;;;;8.63;2.67;;;;;;;;;;4871501;29;20044;-82
2022/10/07 02:57:39;;;;;;;6.63;2.50;;;;;;;;;;4856772;29;20045;-82
2022/10/07 03:00:09;;;;;;;8.02;2.50;;;;;;;;;;4869572;29;20470;-82
2022/10/07 03:03:02;;;;;;;4.60;2.60;;;;;;;;;;4887166;29;20045;-83
2022/10/07 03:05:45;;;;;;;8.52;3.22;;;;;;;;;;4869669;29;20045;-82
2022/10/07 03:08:20;;;;;;;5.70;2.03;;;;;;;;;;4877835;29;20405;-82
2022/10/07 03:10:49;;;;;;;5.45;2.40;;;;;;;;;;4882619;29;20049;-82
2022/10/07 03:13:17;;;;;;;12.32;2.75;;;;;;;;;;4865392;29;20057;-82
2022/10/07 03:15:56;;;;;;;4.88;2.50;;;;;;;;;;4871949;29;20101;-83
2022/10/07 03:18:27;;;;;;;7.03;2.50;;;;;;;;;;4885343;29;20144;-82
2022/10/07 03:21:15;;;;;;;7.95;2.35;;;;;;;;;;4866488;29;20447;-82
2022/10/07 03:23:43;;;;;;;4.85;2.50;;;;;;;;;;4855512;29;20156;-83
2022/10/07 03:26:16;;;;;;;12.13;2.72;;;;;;;;;;4873499;29;20043;-82
2022/10/07 03:29:10;;;;;;;6.65;2.70;;;;;;;;;;4869465;29;20056;-82
2022/10/07 03:31:41;;;;;;;8.77;2.38;;;;;;;;;;4855208;29;20463;-82
2022/10/07 03:34:33;;;;;;;4.38;2.30;;;;;;;;;;4869704;29;20044;-83
2022/10/07 03:37:12;;;;;;;8.13;2.80;;;;;;;;;;4887036;29;20037;-83
2022/10/07 03:39:41;;;;;;;12.73;2.60;;;;;;;;;;4869516;29;20045;-83
2022/10/07 03:42:09;;;;;;;6.35;2.63;;;;;;;;;;4871971;29;20141;-82
2022/10/07 03:44:37;;;;;;;6.57;2.38;;;;;;;;;;4872361;29;20052;-82
2022/10/07 03:47:09;;;;;;;9.13;2.55;;;;;;;;;;4875921;29;20403;-83
2022/10/07 03:49:38;;;;;;;6.00;2.60;;;;;;;;;;4857583;29;20044;-83
2022/10/07 03:52:31;;;;;;;12.77;2.80;;;;;;;;;;4874016;29;20048;-83
2022/10/07 03:54:59;;;;;;;8.15;2.20;;;;;;;;;;4864927;29;20061;-82
2022/10/07 03:57:57;;;;;;;6.05;2.28;;;;;;;;;;4873287;29;20447;-82
2022/10/07 04:00:27;;;;;;;7.47;2.47;;;;;;;;;;4887908;29;20049;-83
2022/10/07 04:03:19;;;;;;;12.27;2.38;;;;;;;;;;4889266;29;20074;-83
2022/10/07 04:06:00;;;;;;;4.55;2.30;;;;;;;;;;4884687;29;20054;-83
2022/10/07 04:08:32;;;;;;;7.43;2.40;;;;;;;;;;4857896;29;20072;-82
2022/10/07 04:11:03;;;;;;;9.98;2.50;;;;;;;;;;4881329;29;20067;-83
2022/10/07 04:13:32;;;;;;;11.68;2.67;;;;;;;;;;4878834;29;20445;-82
2022/10/07 04:16:08;;;;;;;13.80;2.20;;;;;;;;;;4856281;29;20044;-82
2022/10/07 04:18:38;;;;;;;6.90;2.50;;;;;;;;;;4872638;29;20064;-82
2022/10/07 04:21:32;;;;;;;6.63;2.15;;;;;;;;;;4874688;29;20041;-82
2022/10/07 04:24:04;;;;;;;6.47;2.30;;;;;;;;;;4872942;29;20052;-82
2022/10/07 04:26:33;;;;;;;9.48;3.15;;;;;;;;;;4872786;29;20035;-83
2022/10/07 04:29:05;;;;;;;10.43;2.78;;;;;;;;;;4888258;29;20578;-82
2022/10/07 04:31:37;;;;;;;5.20;2.25;;;;;;;;;;4873337;29;20037;-82
2022/10/07 04:34:06;;;;;;;10.10;2.55;;;;;;;;;;4877484;29;20041;-82
2022/10/07 04:36:37;;;;;;;7.57;2.40;;;;;;;;;;4874118;29;20505;-83
2022/10/07 04:39:13;;;;;;;8.00;2.35;;;;;;;;;;4872193;29;20029;-82
2022/10/07 04:41:47;;;;;;;6.22;2.45;;;;;;;;;;4868395;29;20068;-82
2022/10/07 04:44:23;;;;;;;8.27;2.50;;;;;;;;;;4872388;29;20052;-82
2022/10/07 04:47:07;;;;;;;9.25;2.20;;;;;;;;;;4857498;29;20045;-82
2022/10/07 04:49:37;;;;;;;5.95;2.38;;;;;;;;;;4873693;29;20522;-83
2022/10/07 04:52:07;;;;;;;6.35;2.35;;;;;;;;;;4868019;29;20125;-83
2022/10/07 04:54:41;;;;;;;6.60;2.30;;;;;;;;;;4858724;29;20055;-83
2022/10/07 04:57:33;;;;;;;8.25;2.22;;;;;;;;;;4872027;29;20041;-82
2022/10/07 05:00:25;;;;;;;4.20;2.08;;;;;;;;;;4888035;29;20576;-82
2022/10/07 05:03:00;;;;;;;7.72;2.45;;;;;;;;;;4870078;29;20136;-82
2022/10/07 05:05:27;;;;;;;6.00;2.15;;;;;;;;;;4855632;29;21833;-83
2022/10/07 05:08:23;;;;;;;8.45;2.47;;;;;;;;;;4870864;29;20044;-82
2022/10/07 05:10:56;;;;;;;7.72;2.38;;;;;;;;;;4872961;29;20432;-83
2022/10/07 05:13:37;;;;;;;8.48;2.50;;;;;;;;;;4870326;29;20705;-83
2022/10/07 05:16:08;;;;;;;6.70;2.20;;;;;;;;;;4854651;29;20052;-83
2022/10/07 05:18:38;;;;;;;9.52;2.20;;;;;;;;;;4870839;29;20064;-82
2022/10/07 05:21:33;;;;;;;9.75;2.25;;;;;;;;;;4873332;29;20544;-83
2022/10/07 05:24:50;;;;;;;6.72;2.03;;;;;;;;;;4873478;29;20040;-83
2022/10/07 05:27:20;;;;;;;13.98;2.40;;;;;;;;;;4857072;29;20045;-83
2022/10/07 05:30:13;;;;;;;3.95;2.08;;;;;;;;;;4886592;29;20033;-82
2022/10/07 05:32:56;;;;;;;10.68;2.55;;;;;;;;;;4872272;29;20045;-84
2022/10/07 05:35:25;;;;;;;5.15;1.83;;;;;;;;;;4869808;29;20041;-84
2022/10/07 05:38:35;;;;;;;4.45;2.15;;;;;;;;;;4873492;29;20049;-83
2022/10/07 05:41:57;;;;;;;7.90;2.00;;;;;;;;;;4870354;29;20064;-84
2022/10/07 05:44:57;;;;;;;7.25;2.25;;;;;;;;;;4881480;29;20098;-85
2022/10/07 05:47:39;;;;;;;7.10;2.58;;;;;;;;;;4869714;29;20135;-84
2022/10/07 05:50:08;;;;;;;6.80;2.10;;;;;;;;;;4870077;29;20044;-84
2022/10/07 05:52:49;;;;;;;7.57;2.58;;;;;;;;;;4871321;29;20045;-84
2022/10/07 05:55:31;;;;;;;7.97;2.13;;;;;;;;;;4884984;29;20214;-84
2022/10/07 05:58:18;;;;;;;8.25;2.05;;;;;;;;;;4866794;29;20045;-84
2022/10/07 06:01:28;;;;;;;6.28;2.03;;;;;;;;;;4871809;29;20046;-84
2022/10/07 06:04:18;;;;;;;9.32;2.30;;;;;;;;;;4871489;29;20084;-82
2022/10/07 06:07:17;;;;;;;9.38;2.38;;;;;;;;;;4873387;29;20407;-83
2022/10/07 06:13:08;;;;;;;8.88;2.08;;;;;;;;;;4851566;29;20532;-84
2022/10/07 06:16:55;;;;;;;8.93;2.25;;;;;;;;;;4849037;29;20595;-82
2022/10/07 06:21:02;;;;;;;6.63;2.00;;;;;;;;;;4850306;29;20049;-83
2022/10/07 06:25:01;;;;;;;4.68;2.13;;;;;;;;;;4845539;29;20065;-82
2022/10/07 06:28:56;;;;;;;6.88;2.08;;;;;;;;;;4851430;29;20048;-83
2022/10/07 06:31:41;;;;;;;11.32;2.30;;;;;;;;;;4821599;29;20786;-83
2022/10/07 06:34:29;;;;;;;7.70;2.10;;;;;;;;;;4852125;29;20052;-84
2022/10/07 06:37:18;;;;;;;9.82;2.42;;;;;;;;;;4846691;29;20084;-81
2022/10/07 06:40:33;;;;;;;7.28;2.22;;;;;;;;;;4850151;29;20068;-83
2022/10/07 06:43:15;;;;;;;8.10;2.00;;;;;;;;;;4836754;29;20049;-83
2022/10/07 06:45:58;;;;;;;8.50;2.42;;;;;;;;;;4836632;29;20055;-83
2022/10/07 06:48:26;;;;;;;12.10;2.78;;;;;;;;;;4832626;29;20045;-83
2022/10/07 06:50:55;;;;;;;5.60;2.28;;;;;;;;;;4881817;29;20124;-83
2022/10/07 06:53:24;;;;;;;10.13;2.20;;;;;;;;;;4886949;29;20056;-83
2022/10/07 06:55:56;;;;;;;7.20;2.22;;;;;;;;;;4865313;29;20119;-83
2022/10/07 06:58:26;;;;;;;10.27;2.80;;;;;;;;;;4867744;29;20514;-83
2022/10/07 07:00:58;;;;;;;6.10;1.98;;;;;;;;;;4868181;29;20057;-83
2022/10/07 07:03:26;;;;;;;5.50;2.25;;;;;;;;;;4885327;29;20131;-83
2022/10/07 07:05:57;;;;;;;8.02;2.17;;;;;;;;;;4886333;29;20069;-82
2022/10/07 07:08:34;;;;;;;5.15;1.90;;;;;;;;;;4862154;29;20049;-83
2022/10/07 07:14:27;;;;;;;8.63;2.22;;;;;;;;;;4891612;29;20060;-83
2022/10/07 07:17:12;;;;;;;6.25;2.17;;;;;;;;;;4891631;29;20069;-83
2022/10/07 07:19:41;;;;;;;7.57;2.20;;;;;;;;;;4874774;29;20123;-83
2022/10/07 07:22:10;;;;;;;7.63;2.70;;;;;;;;;;4881566;29;20271;-83
2022/10/07 07:24:39;;;;;;;7.20;2.22;;;;;;;;;;4870379;29;20569;-83
2022/10/07 07:27:07;;;;;;;6.32;1.90;;;;;;;;;;4876390;29;20152;-83
2022/10/07 07:29:40;;;;;;;7.13;2.00;;;;;;;;;;4855005;29;20146;-83
2022/10/07 07:32:07;;;;;;;7.07;2.08;;;;;;;;;;4876621;29;20498;-83
2022/10/07 07:34:39;;;;;;;9.15;2.08;;;;;;;;;;4876436;29;20391;-83
2022/10/07 07:37:09;;;;;;;7.85;2.33;;;;;;;;;;4876275;29;20068;-83
2022/10/07 07:39:51;;;;;;;10.52;2.38;;;;;;;;;;4875943;29;20044;-83
2022/10/07 07:42:20;;;;;;;6.32;1.90;;;;;;;;;;4870807;29;20053;-83
2022/10/07 07:44:48;;;;;;;7.28;2.05;;;;;;;;;;4873892;29;20099;-83
2022/10/07 07:47:22;;;;;;;5.93;1.90;;;;;;;;;;4890319;29;20045;-83
2022/10/07 07:49:49;;;;;;;7.57;2.25;;;;;;;;;;4891073;29;20069;-83
2022/10/07 07:52:24;;;;;;;9.63;2.50;;;;;;;;;;4886031;29;20535;-83
2022/10/07 07:55:19;;;;;;;8.63;1.95;;;;;;;;;;4876074;29;20064;-83
2022/10/07 07:57:48;;;;;;;11.32;2.38;;;;;;;;;;4884140;29;20404;-83
2022/10/07 08:00:15;;;;;;;9.98;2.13;;;;;;;;;;4875178;29;20067;-83
2022/10/07 08:02:53;;;;;;;11.02;2.45;;;;;;;;;;4869249;29;20094;-82
2022/10/07 08:05:25;;;;;;;6.78;2.33;;;;;;;;;;4875012;29;20093;-83
2022/10/07 08:07:55;;;;;;;8.32;1.75;;;;;;;;;;4875453;29;20037;-83
2022/10/07 08:10:25;;;;;;;6.28;2.05;;;;;;;;;;4869548;29;20097;-83
2022/10/07 08:12:58;;;;;;;6.57;1.95;;;;;;;;;;4868195;29;20063;-83
2022/10/07 08:15:27;;;;;;;7.78;1.92;;;;;;;;;;4873525;29;20131;-83
2022/10/07 08:17:55;;;;;;;9.63;2.17;;;;;;;;;;4859436;29;20053;-83
2022/10/07 08:20:27;;;;;;;9.80;2.05;;;;;;;;;;4873648;29;20097;-83
2022/10/07 08:22:55;;;;;;;7.93;1.90;;;;;;;;;;4872870;29;20045;-83
2022/10/07 08:25:27;;;;;;;11.40;2.10;;;;;;;;;;4875213;29;20049;-83
2022/10/07 08:28:19;;;;;;;7.57;1.88;;;;;;;;;;4873282;29;20109;-83
2022/10/07 08:30:48;;;;;;;8.00;2.08;;;;;;;;;;4855741;29;20127;-83
2022/10/07 08:33:17;;;;;;;11.30;2.10;;;;;;;;;;4873219;29;20053;-83
2022/10/07 08:36:07;;;;;;;6.80;2.10;;;;;;;;;;4867227;29;20145;-83
2022/10/07 08:38:37;;;;;;;10.50;2.25;;;;;;;;;;4889408;29;20060;-83
2022/10/07 08:41:33;;;;;;;10.95;2.50;;;;;;;;;;4873336;29;22075;-83
2022/10/07 08:44:16;;;;;;;10.48;1.88;;;;;;;;;;4870115;29;20182;-83
2022/10/07 08:46:58;;;;;;;6.75;1.55;;;;;;;;;;4870972;29;20110;-83
2022/10/07 08:50:03;;;;;;;10.07;2.40;;;;;;;;;;4871798;29;20128;-83
2022/10/07 08:52:45;;;;;;;5.72;1.55;;;;;;;;;;4888770;29;20045;-83
2022/10/07 08:55:17;;;;;;;8.25;1.70;;;;;;;;;;4854869;29;20117;-83
2022/10/07 08:58:28;;;;;;;7.53;1.70;;;;;;;;;;4860534;29;20139;-83
2022/10/07 09:01:11;;;;;;;5.70;1.48;;;;;;;;;;4854961;29;20049;-83
2022/10/07 09:04:09;;;;;;;8.27;1.65;;;;;;;;;;4885160;29;20466;-83
2022/10/07 09:07:08;;;;;;;12.10;2.00;;;;;;;;;;4883566;29;20048;-83
2022/10/07 09:09:59;;;;;;;7.90;1.63;;;;;;;;;;4880847;29;20041;-83
2022/10/07 09:12:40;;;;;;;8.32;1.65;;;;;;;;;;4857647;29;20055;-83
2022/10/07 09:15:17;;;;;;;6.68;1.80;;;;;;;;;;4878983;29;20048;-84
2022/10/07 09:20:54;;;;;;;8.55;1.67;;;;;;;;;;4869453;29;20484;-84
2022/10/07 09:23:54;;;;;;;11.90;1.70;;;;;;;;;;4872560;29;20066;-83
2022/10/07 09:26:23;;;;;;;6.88;1.58;;;;;;;;;;4870456;29;20052;-83
2022/10/07 09:28:51;;;;;;;10.13;1.40;;;;;;;;;;4877546;29;20417;-83
2022/10/07 09:31:23;;;;;;;11.38;2.10;;;;;;;;;;4869470;29;20281;-84
2022/10/07 09:33:55;;;;;;;11.05;1.67;;;;;;;;;;4887779;29;20128;-83
2022/10/07 09:36:25;;;;;;;12.35;1.60;;;;;;;;;;4885627;29;20387;-83
2022/10/07 09:38:53;;;;;;;10.88;2.88;;;;;;;;;;4871090;29;20166;-83
2022/10/07 09:41:30;;;;;;;8.10;1.55;;;;;;;;;;4851119;29;20049;-84
2022/10/07 09:44:15;;;;;;;8.77;2.33;;;;;;;;;;4872173;29;20048;-84
2022/10/07 09:46:51;;;;;;;11.30;1.45;;;;;;;;;;4886553;29;20048;-84
2022/10/07 09:49:40;;;;;;;11.20;2.35;;;;;;;;;;4868798;29;20425;-83
2022/10/07 09:52:34;;;;;;;13.35;2.70;;;;;;;;;;4870199;29;20033;-84
2022/10/07 09:55:36;;;;;;;8.07;2.03;;;;;;;;;;4869356;29;20056;-83
2022/10/07 09:58:28;;;;;;;7.78;1.50;;;;;;;;;;4881037;29;20075;-83
2022/10/07 10:01:09;;;;;;;10.57;1.52;;;;;;;;;;4865965;29;20037;-84
2022/10/07 10:03:37;;;;;;;9.18;1.42;;;;;;;;;;4870652;29;20056;-84
2022/10/07 10:06:11;;;;;;;11.15;1.52;;;;;;;;;;4870451;29;20071;-84
2022/10/07 10:08:43;;;;;;;8.80;1.70;;;;;;;;;;4868974;29;20116;-84
2022/10/07 10:11:29;;;;;;;7.88;1.65;;;;;;;;;;4872327;29;20055;-85
2022/10/07 10:14:28;;;;;;;13.82;3.38;;;;;;;;;;4867197;29;20125;-84
2022/10/07 10:17:03;;;;;;;10.45;1.80;;;;;;;;;;4868028;29;20061;-84
2022/10/07 10:19:31;;;;;;;7.30;1.20;;;;;;;;;;4850415;29;20044;-84
2022/10/07 10:22:03;;;;;;;11.45;1.65;;;;;;;;;;4874752;29;20105;-84
2022/10/07 10:27:52;;;;;;;8.35;1.48;;;;;;;;;;4885009;29;20064;-85
2022/10/07 10:31:59;;;;;;;12.10;2.40;;;;;;;;;;4835673;29;20106;-86
2022/10/07 10:35:45;;;;;;;11.05;1.80;;;;;;;;;;4823854;29;20053;-86
2022/10/07 10:40:06;;;;;;;10.07;1.60;;;;;;;;;;4822916;29;20057;-86
2022/10/07 10:44:22;;;;;;;7.88;1.30;;;;;;;;;;4820921;29;20523;-86
2022/10/07 10:48:23;;;;;;;8.23;1.33;;;;;;;;;;4820812;29;20042;-86
2022/10/07 10:57:15;;;;;;;9.73;1.52;;;;;;;;;;4787876;29;20069;-85
2022/10/07 11:00:32;;;;;;;7.32;1.40;;;;;;;;;;4792783;29;20047;-85
2022/10/07 11:03:33;;;;;;;7.25;1.67;;;;;;;;;;4804180;29;20097;-85
2022/10/07 11:06:27;;;;;;;12.40;1.55;;;;;;;;;;4807813;29;20050;-86
2022/10/07 11:09:40;;;;;;;6.78;1.02;;;;;;;;;;4805893;29;20042;-85
2022/10/07 11:12:38;;;;;;;13.85;1.30;;;;;;;;;;4805091;29;20150;-85
2022/10/07 11:16:26;;;;;;;7.32;1.27;;;;;;;;;;4813117;29;20093;-84
2022/10/07 11:20:03;;;;;;;8.98;1.25;;;;;;;;;;4819571;29;20538;-85
2022/10/07 11:23:33;;;;;;;8.95;1.60;;;;;;;;;;4816892;29;20893;-85
2022/10/07 11:26:36;;;;;;;7.05;1.65;;;;;;;;;;4811929;29;22704;-85
2022/10/07 11:30:23;;;;;;;9.60;1.60;;;;;;;;;;4818084;29;20054;-85
2022/10/07 11:33:37;;;;;;;10.95;1.55;;;;;;;;;;4834037;29;20061;-84
2022/10/07 11:36:28;;;;;;;6.05;1.25;;;;;;;;;;4866938;29;20057;-85
2022/10/07 11:40:42;;;;;;;9.13;1.40;;;;;;;;;;4871175;29;20081;-83
2022/10/07 11:45:20;;;;;;;8.02;1.30;;;;;;;;;;4865762;29;20136;-83
2022/10/07 11:49:10;;;;;;;5.93;1.40;;;;;;;;;;4869408;29;20049;-86
2022/10/07 11:52:09;;;;;;;4.93;1.13;;;;;;;;;;4868759;29;20151;-82
2022/10/07 11:54:46;;;;;;;8.32;2.10;;;;;;;;;;4850964;29;20081;-83
2022/10/07 12:00:36;;;;;;;6.32;1.40;;;;;;;;;;4852426;29;20148;-84
2022/10/07 12:03:24;;;;;;;10.55;1.60;;;;;;;;;;4855039;29;20049;-84
2022/10/07 12:06:10;;;;;;;8.63;1.35;;;;;;;;;;4858649;29;20057;-84
2022/10/07 12:08:47;;;;;;;8.02;2.10;;;;;;;;;;4842768;29;20109;-83
2022/10/07 12:11:18;;;;;;;8.38;1.55;;;;;;;;;;4840652;29;20057;-83
2022/10/07 12:13:49;;;;;;;9.73;1.30;;;;;;;;;;4866890;29;20089;-83
2022/10/07 12:16:30;;;;;;;11.43;1.40;;;;;;;;;;4836872;29;20053;-84
2022/10/07 12:19:09;;;;;;;6.40;1.50;;;;;;;;;;4853569;29;20061;-81
2022/10/07 12:22:16;;;;;;;8.52;1.40;;;;;;;;;;4854733;29;20061;-84
2022/10/07 12:26:32;;;;;;;7.60;1.55;;;;;;;;;;4799004;29;20070;-85
2022/10/07 12:30:08;;;;;;;5.03;1.30;;;;;;;;;;4752458;30;20063;-84
2022/10/07 12:34:07;;;;;;;9.02;1.42;;;;;;;;;;4754877;30;20566;-83
2022/10/07 12:38:22;;;;;;;13.63;1.95;;;;;;;;;;4746987;30;20691;-83
2022/10/07 12:42:29;;;;;;;8.13;1.60;;;;;;;;;;4752728;30;20063;-82
2022/10/07 12:45:36;;;;;;;7.38;1.10;;;;;;;;;;4723185;30;20056;-84
2022/10/07 12:49:35;;;;;;;;;;;;;;;;;;;;;
2022/10/07 12:53:29;;;;;;;7.97;1.05;;;;;;;;;;4748971;30;20062;-82
2022/10/07 12:57:48;;;;;;;6.85;1.27;;;;;;;;;;4729410;30;20060;-82
2022/10/07 13:01:13;;;;;;;5.75;1.25;;;;;;;;;;4739386;29;20056;-83
2022/10/07 13:04:19;;;;;;;7.13;1.67;;;;;;;;;;4780673;29;20063;-84
2022/10/07 13:07:15;;;;;;;5.07;1.35;;;;;;;;;;4785196;29;20157;-83
2022/10/07 13:10:02;;;;;;;9.70;1.40;;;;;;;;;;4793625;29;20051;-83
2022/10/07 13:13:06;;;;;;;5.63;1.35;;;;;;;;;;4797150;29;20118;-83
2022/10/07 13:15:54;;;;;;;12.80;2.75;;;;;;;;;;4811088;29;20046;-83
2022/10/07 13:18:29;;;;;;;8.57;1.15;;;;;;;;;;4808681;29;20061;-83
2022/10/07 13:21:18;;;;;;;4.93;1.30;;;;;;;;;;4799288;29;20061;-83
2022/10/07 13:23:54;;;;;;;12.02;1.50;;;;;;;;;;4887116;29;20494;-84
2022/10/07 13:26:24;;;;;;;8.68;1.30;;;;;;;;;;4871236;29;20041;-83
2022/10/07 13:28:59;;;;;;;12.70;1.70;;;;;;;;;;4875183;29;20113;-83
2022/10/07 13:31:30;;;;;;;7.20;1.27;;;;;;;;;;4876992;29;20493;-83
2022/10/07 13:34:00;;;;;;;6.78;1.63;;;;;;;;;;4870161;29;20068;-84
2022/10/07 13:36:44;;;;;;;9.65;1.45;;;;;;;;;;4859132;29;20172;-85
2022/10/07 13:39:29;;;;;;;8.82;1.75;;;;;;;;;;4873890;29;20056;-85
2022/10/07 13:43:37;;;;;;;11.38;1.55;;;;;;;;;;4866050;29;20053;-84
2022/10/07 13:47:39;;;;;;;6.57;1.30;;;;;;;;;;4882549;29;20044;-84
2022/10/07 14:20:07;;;;;;;7.65;1.52;;;;;;;;;;4883247;29;20105;-84
2022/10/07 14:24:44;;;;;;;9.27;1.48;;;;;;;;;;4823357;29;20287;-84
2022/10/07 14:29:24;;;;;;;6.55;1.50;;;;;;;;;;4792907;29;20135;-83
2022/10/07 14:38:12;;;;;;;7.00;1.50;;;;;;;;;;4780642;29;20169;-84
2022/10/07 14:43:16;;;;;;;6.95;1.30;;;;;;;;;;4814095;29;20046;-83
2022/10/07 14:57:09;;;;;;;5.47;1.40;;;;;;;;;;4689603;30;20090;-84
2022/10/07 14:59:52;;;;;;;5.35;1.50;;;;;;;;;;4666751;30;20120;-84
2022/10/07 15:06:05;;;;;;;5.85;1.42;;;;;;;;;;4706682;30;20069;-84
2022/10/07 15:08:48;;;;;;;7.72;1.48;;;;;;;;;;4737206;30;20060;-85
2022/10/07 15:12:57;;;;;;;5.82;1.30;;;;;;;;;;4780336;29;20951;-83
2022/10/07 15:16:12;;;;;;;12.75;1.80;;;;;;;;;;4747734;30;20052;-85
2022/10/07 15:19:20;;;;;;;5.95;1.40;;;;;;;;;;4764516;30;20048;-82
2022/10/07 15:21:47;;;;;;;6.32;1.30;;;;;;;;;;4797982;29;20063;-85
2022/10/07 15:24:30;;;;;;;4.90;1.10;;;;;;;;;;4839088;29;20060;-85
2022/10/07 15:27:11;;;;;;;7.65;1.60;;;;;;;;;;4838952;29;20053;-85
2022/10/07 15:30:40;;;;;;;11.40;2.17;;;;;;;;;;4839144;29;20093;-85
2022/10/07 15:33:58;;;;;;;5.63;1.42;;;;;;;;;;4845965;29;20045;-85
2022/10/07 15:36:42;;;;;;;8.80;1.48;;;;;;;;;;4826293;29;20510;-84
2022/10/07 15:39:52;;;;;;;9.57;2.00;;;;;;;;;;4854221;29;20076;-83
2022/10/07 15:42:33;;;;;;;8.82;1.63;;;;;;;;;;4812849;29;20132;-83
2022/10/07 15:45:17;;;;;;;8.05;1.70;;;;;;;;;;4839535;29;20083;-83
2022/10/07 15:49:09;;;;;;;6.22;1.40;;;;;;;;;;4883825;29;20059;-83
2022/10/07 15:52:05;;;;;;;4.75;1.42;;;;;;;;;;4859361;29;20501;-85
2022/10/07 15:54:47;;;;;;;7.38;1.60;;;;;;;;;;4878663;29;20045;-85
2022/10/07 15:58:09;;;;;;;13.88;1.70;;;;;;;;;;4891592;29;20069;-85
2022/10/07 16:07:11;;;;;;;10.55;1.88;;;;;;;;;;4814656;29;20185;-83
2022/10/07 16:11:53;;;;;;;8.43;2.00;;;;;;;;;;4800046;29;20126;-83
2022/10/07 16:16:22;;;;;;;5.35;1.77;;;;;;;;;;4809263;29;20525;-83
2022/10/07 16:20:41;;;;;;;7.00;1.55;;;;;;;;;;4806020;29;20054;-83
2022/10/07 16:23:49;;;;;;;5.95;1.50;;;;;;;;;;4795238;29;20062;-85
2022/10/07 16:26:34;;;;;;;8.77;1.40;;;;;;;;;;4800012;29;20519;-85
2022/10/07 16:32:58;;;;;;;7.05;2.15;;;;;;;;;;4790957;29;20453;-85
2022/10/07 16:36:10;;;;;;;8.27;2.10;;;;;;;;;;4812759;29;20063;-85
2022/10/07 16:39:39;;;;;;;6.35;1.65;;;;;;;;;;4805543;29;20157;-83
2022/10/07 16:42:37;;;;;;;8.23;1.77;;;;;;;;;;4792292;29;20440;-84
2022/10/07 16:46:49;;;;;;;5.95;1.35;;;;;;;;;;4776647;29;20097;-83
2022/10/07 16:50:48;;;;;;;9.05;1.60;;;;;;;;;;4791170;29;20046;-83
2022/10/07 16:53:17;;;;;;;7.72;1.42;;;;;;;;;;4771532;29;20055;-84
2022/10/07 16:55:45;;;;;;;6.88;1.80;;;;;;;;;;4777977;29;20066;-84
2022/10/07 16:58:18;;;;;;;6.97;2.08;;;;;;;;;;4809798;29;20543;-84
2022/10/07 17:01:11;;;;;;;10.45;2.45;;;;;;;;;;4798867;29;20128;-84
2022/10/07 17:03:53;;;;;;;6.18;1.92;;;;;;;;;;4808810;29;20055;-84
2022/10/07 17:06:41;;;;;;;7.75;1.83;;;;;;;;;;4847246;29;20140;-84
2022/10/07 17:10:44;;;;;;;8.13;1.83;;;;;;;;;;4846281;29;20057;-82
2022/10/07 17:13:46;;;;;;;7.60;1.98;;;;;;;;;;4832578;29;20141;-83
2022/10/07 17:16:15;;;;;;;8.18;2.45;;;;;;;;;;4836512;29;20060;-82
2022/10/07 17:18:57;;;;;;;8.43;3.00;;;;;;;;;;4840538;29;20065;-82
2022/10/07 17:21:46;;;;;;;7.07;1.63;;;;;;;;;;4872641;29;20056;-84
2022/10/07 17:24:28;;;;;;;9.48;2.00;;;;;;;;;;4852635;29;20136;-84
2022/10/07 17:27:20;;;;;;;8.18;2.55;;;;;;;;;;4860296;29;20104;-83
2022/10/07 17:29:54;;;;;;;7.53;2.92;;;;;;;;;;4855448;29;20049;-84
2022/10/07 17:32:25;;;;;;;7.70;3.13;;;;;;;;;;4871563;29;20044;-84
2022/10/07 17:35:27;;;;;;;10.35;3.60;;;;;;;;;;4870404;29;20252;-86
2022/10/07 17:38:10;;;;;;;19.27;5.82;;;;;;;;;;4842341;29;20048;-83
2022/10/07 17:41:19;;;;;;;11.10;3.25;;;;;;;;;;4862823;29;20131;-82
2022/10/07 17:43:58;;;;;;;12.77;4.13;;;;;;;;;;4876109;29;20831;-83
2022/10/07 17:46:40;;;;;;;8.50;3.65;;;;;;;;;;4871019;29;20049;-82
2022/10/07 17:49:13;;;;;;;21.02;8.52;;;;;;;;;;4888405;29;20041;-83
2022/10/07 17:51:45;;;;;;;15.68;6.28;;;;;;;;;;4881965;29;20132;-82
2022/10/07 17:54:59;;;;;;;19.52;7.03;;;;;;;;;;4858184;29;20659;-84
2022/10/07 17:58:08;;;;;;;37.95;14.63;;;;;;;;;;4873643;29;20136;-83
2022/10/07 18:01:14;;;;;;;13.05;4.18;;;;;;;;;;4851828;29;20049;-82
2022/10/07 18:05:00;;;;;;;19.40;7.88;;;;;;;;;;4871820;29;20052;-83
2022/10/07 18:08:42;;;;;;;33.53;13.73;;;;;;;;;;4871383;29;20057;-83
2022/10/07 18:17:40;;;;;;;9.02;1.88;;;;;;;;;;4852998;29;20092;-84
2022/10/07 18:20:24;;;;;;;9.27;2.05;;;;;;;;;;4856823;29;20135;-84
2022/10/07 18:23:15;;;;;;;6.75;2.08;;;;;;;;;;4868521;29;20041;-83
2022/10/07 18:26:01;;;;;;;13.10;3.97;;;;;;;;;;4883709;29;20049;-83
2022/10/07 18:28:48;;;;;;;7.93;1.80;;;;;;;;;;4873670;29;20157;-84
2022/10/07 18:31:29;;;;;;;7.30;1.73;;;;;;;;;;4870922;29;20056;-84
2022/10/07 18:34:37;;;;;;;10.05;2.00;;;;;;;;;;4873081;29;20041;-84
2022/10/07 18:37:38;;;;;;;7.50;1.55;;;;;;;;;;4883431;29;20041;-85